Aérodrome :
LOGIN :

S'inscrire | Disclaimer

   EN    FR    IT 

 










Légende :    VFR   VFR Marginal   IFR   IFR Intensif   IFR Très Intensif
Visi : 
Plafond : 
>= 8 km
>= 3000ft
5 à 8 km
1000 à 3000 ft
1500m à 5 km
500 à 1000 ft
800 à 1500m
200 à 500 ft
< 800m
< 200 ft
Symboles :   Orages  Brouillard  Fortes neiges  Fortes précipitations  Vent > 20 kt
SIGMETs :   Divers  Orages  Givrage  Turbulence  Onde Orograph.  Cendres Volcan.







- Altitude de l'aérodrome : 74 ft
- Code IATA : MRS
- Voir les cartes d'approche


LFML - Marseille / Marignane

DERNIER METAR :
  • 181100Z AUTO 27013KT 9999 FEW014 32/12 Q1011 BECMG 20015KT

METARs EXPIRÉS :
  • 181030Z AUTO 26014KT CAVOK 31/13 Q1012 BECMG 20015KT
  • 181000Z AUTO 27014KT CAVOK 30/14 Q1012 BECMG 20015KT
  • 180930Z AUTO 29015KT CAVOK 31/11 Q1012 BECMG 20015KT
  • 180900Z AUTO 29015KT CAVOK 30/10 Q1012 BECMG 20015KT
  • 180830Z AUTO 29014KT CAVOK 29/12 Q1012 BECMG 20015KT
  • 180800Z AUTO 30008KT 240V340 CAVOK 28/11 Q1012 NOSIG

TAF TAF LFML
Valide du 18 à 09h jusqu'au 19 à 15h UTC


180800Z 1809/1915 30015KT CAVOK TX32/1812Z TN21/1903Z
BECMG 1810/1812 20015KT
BECMG 1819/1821 VRB05KT
ATIS : +33 4 42 31 15 15
Pas de NOTAMs connus pour ce terrain.



MET'MAP, la Météo Aéronautique d'un coup d'oeil ! - Copyright ORBIFLY Décembre 2007 - Disclaimer

ORBIFLY MET'MAP TEAM :

Programmation & Développement : Alexandra Zaïnal
Conception & Développement : Baudouin d'Aumeries
Co-Programmation & Développement : Marc-Olivier Méhu
Soutien technique & logistique : Manuel Goepfert

Contact : metmap@orbifly.com




SOURCES & CREDITS :

   NOAA